Time;durP1;ratioP1;P1;durP2;ratioP2;P2;SDS_P1;SDS_P2;PMS_P1;PMS_P2;Temp;Humidity;BMP_temperature;BMP_pressure;BME280_temperature;BME280_humidity;BME280_pressure;Samples;Min_cycle;Max_cycle;Signal;HPM_P1;HPM_P2
2023/07/24 00:01:51;;;;;;;82.88;77.55;;;;;;;19.73;59.60;99465.73;1829796;78;25572;-52
2023/07/24 00:04:18;;;;;;;85.03;79.87;;;;;;;19.72;59.55;99447.13;1829687;77;25533;-51
2023/07/24 00:06:44;;;;;;;84.60;79.47;;;;;;;19.71;59.56;99452.41;1829709;77;25517;-52
2023/07/24 00:09:10;;;;;;;83.12;78.12;;;;;;;19.72;59.64;99449.88;1829752;77;27468;-52
2023/07/24 00:11:36;;;;;;;80.72;75.78;;;;;;;19.72;59.65;99447.73;1829534;78;25563;-52
2023/07/24 00:14:02;;;;;;;84.13;78.83;;;;;;;19.69;59.93;99443.80;1828169;77;29739;-50
2023/07/24 00:16:30;;;;;;;83.45;78.00;;;;;;;19.68;59.77;99442.81;1829513;77;27399;-51
2023/07/24 00:18:56;;;;;;;85.12;79.70;;;;;;;19.65;59.93;99443.58;1829841;78;25379;-51
2023/07/24 00:21:23;;;;;;;85.62;80.25;;;;;;;19.63;60.32;99437.72;1829759;77;27434;-51
2023/07/24 00:23:49;;;;;;;83.15;77.92;;;;;;;19.59;60.14;99437.12;1829629;78;25602;-51
2023/07/24 00:26:15;;;;;;;83.03;77.55;;;;;;;19.57;60.21;99434.58;1829740;77;29957;-52
2023/07/24 00:28:41;;;;;;;82.75;77.55;;;;;;;19.56;60.40;99442.60;1813327;78;25577;-51
2023/07/24 00:31:07;;;;;;;82.95;77.95;;;;;;;19.53;60.59;99446.92;1829840;77;28901;-52
2023/07/24 00:33:33;;;;;;;82.88;77.87;;;;;;;19.51;60.54;99449.84;1829743;77;29719;-52
2023/07/24 00:36:00;;;;;;;85.42;80.17;;;;;;;19.49;60.67;99454.34;1829675;78;25539;-53
2023/07/24 00:38:27;;;;;;;84.80;79.37;;;;;;;19.48;60.71;99452.80;1829733;77;25610;-53
2023/07/24 00:40:53;;;;;;;85.38;79.95;;;;;;;19.47;60.67;99451.22;1813417;78;25593;-51
2023/07/24 00:43:19;;;;;;;83.07;77.90;;;;;;;19.48;60.89;99447.88;1829689;78;25603;-52
2023/07/24 00:45:49;;;;;;;82.88;77.67;;;;;;;19.48;60.97;99451.98;1813524;78;27529;-50
2023/07/24 00:48:16;;;;;;;85.75;80.57;;;;;;;19.48;60.99;99451.42;1829639;78;25760;-52
2023/07/24 00:50:44;;;;;;;85.62;80.32;;;;;;;19.49;60.85;99446.12;1829719;77;25373;-53
2023/07/24 00:53:14;;;;;;;84.47;79.03;;;;;;;19.49;61.05;99444.75;1829640;78;25700;-51
2023/07/24 00:55:43;;;;;;;82.42;77.25;;;;;;;19.49;61.03;99450.23;1829756;78;25597;-52
2023/07/24 00:58:12;;;;;;;84.28;79.05;;;;;;;19.49;61.05;99443.97;1829854;78;28140;-51
2023/07/24 01:00:41;;;;;;;83.30;78.12;;;;;;;19.51;60.79;99449.28;1829734;78;25415;-51
2023/07/24 01:03:08;;;;;;;84.10;78.87;;;;;;;19.51;60.79;99449.28;1829850;77;25531;-53
2023/07/24 01:05:35;;;;;;;84.10;78.85;;;;;;;19.52;60.98;99449.45;1829696;77;25805;-51
2023/07/24 01:08:03;;;;;;;83.55;78.37;;;;;;;19.52;61.04;99454.95;1813456;78;25611;-51
2023/07/24 01:10:29;;;;;;;83.82;78.62;;;;;;;19.53;61.20;99448.86;1829714;78;28135;-52
2023/07/24 01:13:19;;;;;;;82.78;77.37;;;;;;;19.53;61.07;99449.67;1829585;77;25428;-52
2023/07/24 01:15:50;;;;;;;82.00;76.85;;;;;;;19.55;61.04;99457.51;1829753;78;25502;-55
2023/07/24 01:18:20;;;;;;;84.75;79.22;;;;;;;19.56;61.10;99459.06;1828976;77;25460;-51
2023/07/24 01:20:54;;;;;;;84.45;79.27;;;;;;;19.57;61.14;99464.75;1829897;78;25434;-53
2023/07/24 01:23:54;;;;;;;83.62;78.42;;;;;;;19.57;61.18;99460.05;1829527;77;28493;-52
2023/07/24 01:26:26;;;;;;;85.25;79.85;;;;;;;19.59;61.12;99469.26;1829607;78;25611;-53
2023/07/24 01:28:52;;;;;;;82.20;77.17;;;;;;;19.60;61.14;99463.38;1813514;78;25472;-54
2023/07/24 01:31:18;;;;;;;85.15;79.97;;;;;;;19.63;61.26;99466.52;1829612;78;25570;-52
2023/07/24 01:33:45;;;;;;;83.85;78.17;;;;;;;19.63;61.24;99465.14;1829628;78;25377;-53
2023/07/24 01:36:14;;;;;;;82.70;77.53;;;;;;;19.63;61.26;99467.89;1829661;78;27559;-52
2023/07/24 01:38:42;;;;;;;81.92;77.00;;;;;;;19.64;61.09;99470.84;1829732;77;25390;-50
2023/07/24 01:41:10;;;;;;;82.05;76.95;;;;;;;19.65;61.02;99462.22;1829697;77;25544;-50
2023/07/24 01:43:37;;;;;;;82.10;76.92;;;;;;;19.67;61.05;99470.84;1829607;78;25731;-52
2023/07/24 01:46:03;;;;;;;81.78;76.72;;;;;;;19.67;61.14;99472.80;1829641;77;25593;-50
2023/07/24 01:48:29;;;;;;;85.38;80.28;;;;;;;19.69;60.99;99464.96;1829635;77;29702;-50
2023/07/24 01:50:55;;;;;;;81.95;76.65;;;;;;;19.70;61.01;99462.40;1829563;77;32653;-50
2023/07/24 01:53:21;;;;;;;84.05;78.85;;;;;;;19.70;60.91;99459.09;1829575;78;25522;-50
2023/07/24 01:55:48;;;;;;;80.05;75.22;;;;;;;19.72;60.91;99453.22;1829652;78;25541;-50
2023/07/24 01:58:14;;;;;;;81.72;76.75;;;;;;;19.72;60.79;99456.73;1829742;78;25403;-52
2023/07/24 02:00:40;;;;;;;83.65;78.47;;;;;;;19.73;60.77;99458.31;1829780;78;27464;-51
2023/07/24 02:03:06;;;;;;;81.90;76.97;;;;;;;19.74;60.61;99459.09;1829681;78;25544;-50
2023/07/24 02:05:33;;;;;;;81.15;76.30;;;;;;;19.73;60.62;99457.51;1829829;77;25438;-52
2023/07/24 02:07:59;;;;;;;80.40;75.40;;;;;;;19.72;60.48;99452.62;1829838;77;25508;-51
2023/07/24 02:10:25;;;;;;;80.10;75.08;;;;;;;19.72;60.47;99452.62;1829799;78;25396;-51
2023/07/24 02:12:51;;;;;;;82.12;77.12;;;;;;;19.71;60.41;99454.38;1811848;78;27394;-54
2023/07/24 02:15:18;;;;;;;82.78;77.80;;;;;;;19.71;60.29;99455.16;1802870;78;25440;-51
2023/07/24 02:17:44;;;;;;;82.45;77.55;;;;;;;19.65;60.28;99444.39;1823798;78;25333;-50
2023/07/24 02:20:11;;;;;;;81.82;76.70;;;;;;;19.70;60.25;99448.11;1823605;78;25574;-51
2023/07/24 02:22:37;;;;;;;82.50;77.30;;;;;;;19.70;60.08;99445.94;1823698;78;25368;-53
2023/07/24 02:25:06;;;;;;;79.45;74.55;;;;;;;19.70;60.01;99446.74;1823684;78;27508;-51
2023/07/24 02:27:34;;;;;;;82.80;77.77;;;;;;;19.70;60.02;99446.74;1823898;78;25435;-51
2023/07/24 02:30:03;;;;;;;79.17;74.37;;;;;;;19.70;59.80;99452.23;1803231;78;25617;-51
2023/07/24 02:32:30;;;;;;;81.00;75.97;;;;;;;19.71;59.66;99454.38;1803399;78;25619;-52
2023/07/24 02:34:56;;;;;;;78.67;73.75;;;;;;;19.72;59.56;99453.98;1823737;78;25450;-51
2023/07/24 02:37:22;;;;;;;82.35;77.32;;;;;;;19.74;59.48;99453.03;1823757;78;27651;-51
2023/07/24 02:39:48;;;;;;;82.33;77.32;;;;;;;19.74;59.40;99450.29;1823557;78;25570;-51
2023/07/24 02:42:14;;;;;;;80.97;76.05;;;;;;;19.74;59.22;99454.41;1823672;78;25403;-52
2023/07/24 02:44:40;;;;;;;81.35;76.37;;;;;;;19.74;59.09;99454.41;1823670;78;34834;-51
2023/07/24 02:47:07;;;;;;;83.67;78.50;;;;;;;19.74;58.94;99448.11;1823716;78;25344;-51
2023/07/24 02:49:34;;;;;;;85.53;79.82;;;;;;;19.74;59.04;99446.17;1823714;78;27544;-52
2023/07/24 02:52:00;;;;;;;83.75;78.45;;;;;;;19.73;58.96;99447.34;1823544;78;25525;-50
2023/07/24 02:54:27;;;;;;;81.25;76.02;;;;;;;19.71;58.82;99459.86;1823656;78;25458;-54
2023/07/24 02:56:53;;;;;;;81.40;76.30;;;;;;;19.67;58.92;99459.86;1823605;78;25534;-50
2023/07/24 02:59:19;;;;;;;84.22;78.85;;;;;;;19.65;58.87;99467.70;1823748;78;25521;-50
2023/07/24 03:01:46;;;;;;;82.92;77.75;;;;;;;19.61;58.84;99465.53;1823672;78;27511;-51
2023/07/24 03:04:12;;;;;;;85.03;79.72;;;;;;;19.59;58.83;99457.69;1823533;78;25342;-50
2023/07/24 03:06:40;;;;;;;83.07;77.62;;;;;;;19.58;58.70;99463.56;1802930;78;25609;-51
2023/07/24 03:09:07;;;;;;;82.08;76.97;;;;;;;19.55;58.51;99457.51;1823721;78;25501;-51
2023/07/24 03:11:33;;;;;;;80.38;75.52;;;;;;;19.54;58.47;99449.84;1823788;78;25568;-51
2023/07/24 03:14:00;;;;;;;80.22;75.12;;;;;;;19.54;58.50;99463.56;1826891;78;27524;-51
2023/07/24 03:16:26;;;;;;;81.87;76.12;;;;;;;19.54;58.49;99467.67;1829685;77;25746;-51
2023/07/24 03:18:52;;;;;;;82.30;77.12;;;;;;;19.53;58.13;99468.86;1829750;77;25430;-54
2023/07/24 03:21:21;;;;;;;83.85;78.85;;;;;;;19.55;58.07;99468.48;1829749;78;25506;-51
2023/07/24 03:23:47;;;;;;;80.20;75.30;;;;;;;19.57;58.06;99466.13;1813772;78;25337;-51
2023/07/24 03:26:13;;;;;;;78.52;73.70;;;;;;;19.57;57.85;99464.75;1829717;77;27482;-50
2023/07/24 03:28:39;;;;;;;80.90;75.80;;;;;;;19.59;57.86;99470.03;1829681;77;30080;-51
2023/07/24 03:31:05;;;;;;;83.15;78.12;;;;;;;19.59;57.64;99475.52;1829745;77;25587;-50
2023/07/24 03:33:31;;;;;;;80.20;75.35;;;;;;;19.61;57.46;99480.61;1829731;77;27666;-50
2023/07/24 03:35:58;;;;;;;77.40;72.72;;;;;;;19.64;57.44;99482.59;1829751;77;25552;-51
2023/07/24 03:38:24;;;;;;;82.88;77.92;;;;;;;19.65;57.37;99474.56;1813350;78;27383;-52
2023/07/24 03:40:50;;;;;;;78.60;73.90;;;;;;;19.66;57.18;99473.38;1829646;78;25883;-51
2023/07/24 03:43:16;;;;;;;81.63;76.55;;;;;;;19.68;57.19;99479.27;1813482;78;25612;-50
2023/07/24 03:45:43;;;;;;;79.45;74.55;;;;;;;19.70;57.04;99475.55;1829722;77;34145;-53
2023/07/24 03:48:10;;;;;;;79.42;74.40;;;;;;;19.73;57.11;99479.45;1829881;78;25450;-50
2023/07/24 03:50:36;;;;;;;78.52;73.72;;;;;;;19.74;56.87;99481.84;1813370;78;27542;-50
2023/07/24 03:53:02;;;;;;;79.90;75.12;;;;;;;19.77;56.81;99488.52;1813232;78;25593;-50
2023/07/24 03:55:28;;;;;;;81.32;76.53;;;;;;;19.80;56.85;99489.69;1829717;78;25537;-52
2023/07/24 03:57:54;;;;;;;78.65;73.80;;;;;;;19.82;56.71;99489.50;1813329;78;26135;-54
2023/07/24 04:00:20;;;;;;;79.77;74.80;;;;;;;19.85;56.61;99490.06;1813469;78;31679;-51
2023/07/24 04:02:48;;;;;;;81.70;76.75;;;;;;;19.88;56.51;99489.30;1829718;78;27934;-51
2023/07/24 04:05:15;;;;;;;80.75;75.95;;;;;;;19.91;56.51;99489.89;1829617;78;25695;-52
2023/07/24 04:07:42;;;;;;;81.57;76.72;;;;;;;19.93;56.44;99482.04;1829803;77;25545;-51
2023/07/24 04:10:09;;;;;;;80.15;75.12;;;;;;;19.96;56.27;99488.72;1829655;77;26043;-51
2023/07/24 04:12:36;;;;;;;80.60;75.67;;;;;;;19.99;56.24;99492.06;1829683;78;25524;-53
2023/07/24 04:15:06;;;;;;;79.03;74.20;;;;;;;20.02;56.17;99495.36;1829660;77;27479;-53
2023/07/24 04:17:32;;;;;;;79.58;74.40;;;;;;;20.04;56.13;99492.23;1829721;77;25514;-54
2023/07/24 04:20:00;;;;;;;78.57;73.45;;;;;;;20.07;56.12;99499.09;1829698;77;25621;-64
2023/07/24 04:22:27;;;;;;;79.12;74.37;;;;;;;20.09;56.16;99496.76;1829659;77;25520;-64
2023/07/24 04:24:53;;;;;;;78.55;73.92;;;;;;;20.13;55.96;99492.04;1813455;78;25657;-64
2023/07/24 04:27:19;;;;;;;79.35;74.45;;;;;;;20.17;55.95;99491.27;1813548;78;27607;-64
2023/07/24 04:29:46;;;;;;;80.22;75.40;;;;;;;20.22;56.10;99488.12;1829653;77;25431;-65
2023/07/24 04:32:12;;;;;;;83.37;77.87;;;;;;;20.25;55.89;99486.73;1829754;77;25355;-65
2023/07/24 04:34:40;;;;;;;81.12;76.15;;;;;;;20.30;55.88;99484.19;1813542;78;25549;-65
2023/07/24 04:37:06;;;;;;;78.42;73.60;;;;;;;20.32;55.82;99478.48;1829714;78;25405;-65
2023/07/24 04:39:33;;;;;;;80.62;75.40;;;;;;;20.38;55.92;99478.08;1829696;78;27448;-65
2023/07/24 04:42:01;;;;;;;79.35;74.60;;;;;;;20.43;55.81;99484.55;1829689;78;25581;-65
2023/07/24 04:44:27;;;;;;;80.07;75.45;;;;;;;20.47;55.71;99486.11;1829703;78;25565;-65
2023/07/24 04:46:55;;;;;;;79.07;74.10;;;;;;;20.53;55.69;99481.80;1829672;77;25443;-65
2023/07/24 04:49:21;;;;;;;78.90;74.15;;;;;;;20.57;55.42;99480.98;1829691;77;25529;-65
2023/07/24 04:51:47;;;;;;;78.45;73.60;;;;;;;20.61;55.42;99476.27;1829700;78;27457;-65
2023/07/24 04:54:14;;;;;;;79.72;75.20;;;;;;;20.65;55.31;99479.24;1829556;77;27363;-65
2023/07/24 04:56:40;;;;;;;78.05;73.33;;;;;;;20.71;55.19;99486.48;1829701;77;25588;-64
2023/07/24 04:59:06;;;;;;;77.05;72.60;;;;;;;20.74;54.90;99482.94;1829684;77;25486;-62
2023/07/24 05:01:32;;;;;;;79.50;74.97;;;;;;;20.78;54.92;99484.30;1829707;78;25590;-61
2023/07/24 05:03:58;;;;;;;78.17;73.67;;;;;;;20.84;54.65;99491.73;1829702;77;27406;-63
2023/07/24 05:06:24;;;;;;;80.57;75.87;;;;;;;20.87;54.45;99485.45;1829647;77;25762;-63
2023/07/24 05:08:53;;;;;;;78.65;74.10;;;;;;;20.96;54.63;99486.97;1829678;78;25619;-62
2023/07/24 05:11:20;;;;;;;78.50;73.90;;;;;;;21.03;54.45;99479.48;1829930;77;25811;-63
2023/07/24 05:13:46;;;;;;;77.35;72.87;;;;;;;21.12;54.30;99490.05;1829550;78;25804;-63
2023/07/24 05:16:12;;;;;;;76.60;71.90;;;;;;;21.22;54.67;99490.58;1829587;77;29697;-63
2023/07/24 05:18:39;;;;;;;76.33;71.67;;;;;;;21.35;54.35;99491.50;1813249;78;25534;-63
2023/07/24 05:21:05;;;;;;;76.95;72.42;;;;;;;21.47;54.02;99488.33;1813316;78;25636;-64
2023/07/24 05:23:33;;;;;;;79.05;74.58;;;;;;;21.62;54.32;99491.18;1829690;78;25568;-63
2023/07/24 05:26:03;;;;;;;76.90;72.15;;;;;;;21.77;54.10;99488.31;1829771;77;25676;-65
2023/07/24 05:28:32;;;;;;;78.90;73.92;;;;;;;21.89;53.40;99489.20;1829677;78;28491;-65
2023/07/24 05:31:04;;;;;;;79.07;74.25;;;;;;;21.99;53.10;99494.44;1829713;77;25438;-64
2023/07/24 05:33:32;;;;;;;76.75;72.27;;;;;;;22.08;52.98;99490.61;1829476;77;25416;-65
2023/07/24 05:36:04;;;;;;;75.65;71.17;;;;;;;22.14;52.54;99484.86;1829814;78;25535;-65
2023/07/24 05:38:32;;;;;;;79.22;74.65;;;;;;;22.20;52.28;99481.06;1829959;78;25613;-65
2023/07/24 05:41:03;;;;;;;75.83;71.20;;;;;;;22.23;51.52;99484.38;1829852;78;27468;-65
2023/07/24 05:43:32;;;;;;;78.10;73.70;;;;;;;22.24;51.27;99484.58;1829851;78;25538;-65
2023/07/24 05:46:00;;;;;;;76.77;72.37;;;;;;;22.23;50.97;99489.13;1830001;78;25565;-65
2023/07/24 05:48:26;;;;;;;78.83;74.10;;;;;;;22.20;50.71;99486.57;1829776;77;25542;-63
2023/07/24 05:50:53;;;;;;;77.53;72.95;;;;;;;22.21;50.87;99484.02;1827192;78;25570;-63
2023/07/24 05:53:20;;;;;;;77.50;72.92;;;;;;;22.20;50.79;99488.75;1829773;77;27445;-64
2023/07/24 05:55:46;;;;;;;78.05;73.22;;;;;;;22.22;50.74;99499.36;1829748;77;25614;-63
2023/07/24 05:58:13;;;;;;;77.78;73.28;;;;;;;22.18;50.61;99487.58;1829802;78;25391;-63
2023/07/24 06:00:39;;;;;;;75.92;71.25;;;;;;;22.15;50.89;99493.89;1813393;78;25536;-63
2023/07/24 06:03:05;;;;;;;78.10;73.20;;;;;;;22.13;50.67;99499.81;1829874;78;25589;-63
2023/07/24 06:05:32;;;;;;;78.22;73.67;;;;;;;22.11;50.81;99498.06;1829901;78;27493;-63
2023/07/24 06:07:58;;;;;;;76.67;72.30;;;;;;;22.09;50.83;99499.06;1813609;78;25614;-63
2023/07/24 06:10:24;;;;;;;78.47;73.85;;;;;;;22.10;50.87;99504.77;1813748;78;25461;-63
2023/07/24 06:12:50;;;;;;;74.82;70.30;;;;;;;22.13;50.91;99499.03;1829779;78;25520;-64
2023/07/24 06:15:16;;;;;;;76.17;71.82;;;;;;;22.17;50.88;99501.95;1825632;77;25338;-63
2023/07/24 06:17:42;;;;;;;76.55;71.62;;;;;;;22.22;51.06;99505.45;1823705;78;29676;-64
2023/07/24 06:20:10;;;;;;;76.90;72.42;;;;;;;22.29;50.96;99506.81;1823658;78;32718;-63
2023/07/24 06:22:36;;;;;;;76.45;71.57;;;;;;;22.33;50.77;99506.17;1803236;78;25393;-64
2023/07/24 06:25:04;;;;;;;73.75;69.50;;;;;;;22.33;50.56;99511.08;1823685;78;25577;-64
2023/07/24 06:27:31;;;;;;;78.85;74.27;;;;;;;22.34;50.54;99511.88;1824000;78;25593;-65
2023/07/24 06:29:57;;;;;;;77.53;72.35;;;;;;;22.36;50.57;99519.91;1823753;78;27571;-64
2023/07/24 06:32:23;;;;;;;76.45;71.60;;;;;;;22.35;50.13;99516.95;1823625;78;25601;-64
2023/07/24 06:34:49;;;;;;;76.53;71.90;;;;;;;22.37;50.33;99511.84;1823646;78;25488;-64
2023/07/24 06:37:16;;;;;;;77.58;72.60;;;;;;;22.40;49.98;99510.23;1823679;78;25598;-64
2023/07/24 06:39:43;;;;;;;78.22;73.02;;;;;;;22.42;49.99;99515.33;1823672;78;25416;-64
2023/07/24 06:42:11;;;;;;;77.90;73.20;;;;;;;22.43;49.68;99505.89;1823740;78;27455;-64
2023/07/24 06:44:37;;;;;;;78.40;73.17;;;;;;;22.43;49.43;99504.51;1823586;78;25645;-63
2023/07/24 06:47:04;;;;;;;77.05;72.50;;;;;;;22.46;49.40;99504.47;1823682;78;25433;-64
2023/07/24 06:49:30;;;;;;;77.87;73.47;;;;;;;22.52;49.66;99497.91;1823669;78;25541;-63
2023/07/24 06:51:56;;;;;;;77.75;73.15;;;;;;;22.66;49.32;99506.62;1823691;78;25545;-64
2023/07/24 06:54:22;;;;;;;78.42;73.75;;;;;;;22.70;48.93;99499.11;1823687;78;26997;-64
2023/07/24 06:56:48;;;;;;;77.58;73.07;;;;;;;22.73;48.58;99503.77;1823570;78;25608;-66
2023/07/24 06:59:14;;;;;;;76.65;72.17;;;;;;;22.74;48.73;99503.37;1823663;78;25391;-64
2023/07/24 07:01:40;;;;;;;76.75;72.20;;;;;;;22.81;48.85;99497.59;1823650;78;26067;-65
2023/07/24 07:04:07;;;;;;;76.28;71.80;;;;;;;22.89;48.77;99498.48;1823907;78;25565;-65
2023/07/24 07:06:33;;;;;;;78.97;74.58;;;;;;;22.97;48.66;99499.77;1824343;78;27392;-65
2023/07/24 07:08:59;;;;;;;76.47;71.80;;;;;;;23.06;48.88;99494.58;1823917;78;27276;-66
2023/07/24 07:11:25;;;;;;;75.03;70.52;;;;;;;23.14;48.22;99489.16;1823976;78;25424;-66
2023/07/24 07:13:51;;;;;;;77.17;72.60;;;;;;;23.22;48.19;99488.45;1823667;78;25570;-66
2023/07/24 07:16:18;;;;;;;75.45;71.05;;;;;;;23.36;48.13;99499.88;1823565;77;25397;-66
2023/07/24 07:18:45;;;;;;;75.83;71.22;;;;;;;23.49;47.98;99501.66;1823698;78;27259;-66
2023/07/24 07:21:12;;;;;;;75.97;71.25;;;;;;;23.58;47.52;99503.13;1823561;78;25958;-65
2023/07/24 07:23:38;;;;;;;75.67;71.47;;;;;;;23.66;48.05;99499.84;1802882;78;25560;-66
2023/07/24 07:26:05;;;;;;;75.65;71.02;;;;;;;23.84;47.70;99500.21;1823670;78;26192;-65
2023/07/24 07:28:32;;;;;;;76.85;72.40;;;;;;;24.06;47.66;99506.17;1823739;78;25540;-65
2023/07/24 07:30:58;;;;;;;73.25;69.20;;;;;;;24.26;46.96;99495.16;1823773;78;27497;-65
2023/07/24 07:33:24;;;;;;;19.42;18.00;;;;;;;24.42;46.80;99500.02;1823624;78;25554;-65
2023/07/24 07:35:51;;;;;;;12.93;11.90;;;;;;;24.63;46.91;99499.47;1823605;78;25514;-65
2023/07/24 07:38:17;;;;;;;23.70;21.85;;;;;;;24.75;46.22;99498.22;1823652;78;25555;-66
2023/07/24 07:40:43;;;;;;;12.53;11.35;;;;;;;24.97;46.14;99495.80;1823664;78;25507;-66
2023/07/24 07:43:09;;;;;;;20.00;18.62;;;;;;;25.18;45.71;99493.79;1823637;78;27558;-66
2023/07/24 07:45:36;;;;;;;29.65;27.07;;;;;;;25.26;44.40;99502.14;1823642;78;25407;-66
2023/07/24 07:48:03;;;;;;;74.77;70.57;;;;;;;25.14;44.31;99507.70;1803144;78;25416;-64
2023/07/24 07:50:29;;;;;;;78.25;73.52;;;;;;;25.06;44.21;99503.52;1823578;78;25581;-65
2023/07/24 07:52:56;;;;;;;77.10;72.80;;;;;;;24.97;44.01;99504.10;1823627;78;25364;-65
2023/07/24 07:55:22;;;;;;;77.30;72.40;;;;;;;24.94;44.74;99500.83;1823589;78;27519;-64
2023/07/24 07:57:48;;;;;;;73.12;68.95;;;;;;;25.10;44.86;99502.86;1823636;78;25583;-65
2023/07/24 08:00:18;;;;;;;75.10;70.90;;;;;;;25.21;44.77;99493.55;1823649;78;25546;-65
2023/07/24 08:02:44;;;;;;;73.55;69.20;;;;;;;25.44;44.28;99496.84;1803102;78;25593;-65
2023/07/24 08:05:12;;;;;;;75.95;71.60;;;;;;;25.45;43.24;99495.62;1823730;78;25629;-65
2023/07/24 08:07:38;;;;;;;76.35;72.25;;;;;;;25.29;43.32;99494.98;1823600;78;27396;-65
2023/07/24 08:10:07;;;;;;;74.25;69.92;;;;;;;25.13;43.09;99492.91;1823468;78;25569;-64
2023/07/24 08:12:33;;;;;;;75.15;71.00;;;;;;;25.02;43.37;99490.38;1823848;78;25549;-65
2023/07/24 08:14:59;;;;;;;73.33;69.25;;;;;;;25.05;43.57;99492.30;1823329;78;25535;-63
2023/07/24 08:17:25;;;;;;;74.00;69.87;;;;;;;25.03;43.59;99489.77;1823637;78;25432;-64
2023/07/24 08:19:51;;;;;;;71.95;67.80;;;;;;;25.07;45.00;99484.34;1823577;78;27449;-64
2023/07/24 08:22:19;;;;;;;69.00;65.10;;;;;;;25.34;44.71;99491.10;1823526;78;25526;-64
2023/07/24 08:24:46;;;;;;;74.32;70.03;;;;;;;25.46;43.45;99490.27;1823577;78;25573;-64
2023/07/24 08:27:14;;;;;;;74.55;70.47;;;;;;;25.51;44.12;99490.53;1823547;78;25540;-66
2023/07/24 08:29:40;;;;;;;73.35;68.80;;;;;;;25.63;43.61;99491.06;1823607;78;25466;-65
2023/07/24 08:32:08;;;;;;;75.12;70.80;;;;;;;25.68;43.78;99486.40;1823549;78;27488;-64
2023/07/24 08:34:34;;;;;;;73.02;68.83;;;;;;;25.76;43.42;99495.30;1823496;78;25664;-64
2023/07/24 08:37:00;;;;;;;75.42;71.15;;;;;;;25.73;42.94;99488.03;1823632;78;25470;-64
2023/07/24 08:39:27;;;;;;;74.27;69.97;;;;;;;25.73;43.35;99493.58;1803035;78;25480;-66
2023/07/24 08:41:53;;;;;;;73.85;69.50;;;;;;;25.90;42.85;99499.13;1823619;78;25349;-65
2023/07/24 08:44:24;;;;;;;72.85;68.75;;;;;;;25.90;42.93;99491.59;1823643;78;29770;-64
2023/07/24 08:46:52;;;;;;;74.82;70.52;;;;;;;25.94;42.40;99490.72;1823513;78;25545;-65
2023/07/24 08:49:19;;;;;;;72.70;68.70;;;;;;;25.95;42.48;99494.48;1823702;78;25570;-65
2023/07/24 08:51:47;;;;;;;73.00;68.83;;;;;;;25.98;42.54;99496.97;1823534;78;25536;-63
2023/07/24 08:54:15;;;;;;;72.45;68.30;;;;;;;26.03;42.43;99486.75;1823632;78;25405;-63
2023/07/24 08:56:46;;;;;;;72.60;68.60;;;;;;;26.22;42.43;99490.63;1823607;78;27551;-64
2023/07/24 08:59:09;;;;;;;71.50;67.40;;;;;;;26.31;42.77;99475.55;1823232;78;25545;-65
2023/07/24 09:01:36;;;;;;;73.55;69.30;;;;;;;26.57;43.64;99481.97;1803029;78;25544;-64
2023/07/24 09:04:02;;;;;;;74.00;69.50;;;;;;;26.95;42.05;99484.12;1802786;78;26182;-65
2023/07/24 09:06:30;;;;;;;73.20;69.20;;;;;;;27.13;41.95;99473.09;1823606;78;25368;-65
2023/07/24 09:08:55;;;;;;;69.47;65.37;;;;;;;27.31;42.35;99469.79;1823617;78;27447;-65
2023/07/24 09:11:22;;;;;;;70.15;66.02;;;;;;;27.40;41.43;99460.20;1823524;78;27412;-66
2023/07/24 09:13:49;;;;;;;72.37;67.95;;;;;;;27.54;40.74;99472.23;1823642;78;25563;-65
2023/07/24 09:16:26;;;;;;;74.40;70.20;;;;;;;27.50;40.33;99471.58;1827800;78;25476;-65
2023/07/24 09:18:54;;;;;;;71.60;67.42;;;;;;;27.43;40.56;99469.63;1829780;77;25602;-66
2023/07/24 09:21:30;;;;;;;70.60;66.35;;;;;;;27.40;39.93;99468.53;1829639;77;29594;-65
2023/07/24 09:23:57;;;;;;;72.80;68.80;;;;;;;27.25;39.74;99468.78;1829443;77;25368;-65
2023/07/24 09:26:24;;;;;;;71.77;67.75;;;;;;;27.15;39.93;99458.16;1829683;77;25515;-65
2023/07/24 09:28:55;;;;;;;73.25;68.95;;;;;;;27.12;40.12;99458.42;1829592;78;25603;-65
2023/07/24 09:31:21;;;;;;;74.22;69.77;;;;;;;27.19;40.40;99456.84;1829728;77;25439;-65
2023/07/24 09:33:48;;;;;;;73.10;68.85;;;;;;;27.56;40.47;99455.13;1829595;77;27529;-65
2023/07/24 09:36:14;;;;;;;71.53;67.72;;;;;;;27.89;40.48;99451.47;1829646;77;25686;-65
2023/07/24 09:38:42;;;;;;;69.10;65.30;;;;;;;28.30;40.16;99448.31;1829637;77;25420;-66
2023/07/24 09:41:09;;;;;;;70.62;66.82;;;;;;;28.65;39.96;99444.09;1829626;77;25482;-66
2023/07/24 09:43:35;;;;;;;70.90;66.82;;;;;;;29.17;39.73;99443.18;1829746;77;25385;-65
2023/07/24 09:46:06;;;;;;;69.47;65.83;;;;;;;29.71;38.75;99441.03;1829711;78;27558;-65
2023/07/24 09:48:35;;;;;;;70.05;66.10;;;;;;;29.90;37.59;99442.46;1829671;77;25612;-66
2023/07/24 09:51:01;;;;;;;69.97;66.20;;;;;;;29.93;37.36;99440.15;1829802;78;25486;-66
2023/07/24 09:53:56;;;;;;;76.22;71.92;;;;;;;29.88;37.09;99442.16;1829703;77;26174;-66
2023/07/24 09:56:24;;;;;;;70.87;66.35;;;;;;;29.82;37.21;99437.05;1829766;77;25607;-67
2023/07/24 09:58:55;;;;;;;67.80;64.12;;;;;;;29.77;36.32;99433.62;1830001;78;27449;-70
2023/07/24 10:01:23;;;;;;;70.05;65.75;;;;;;;29.42;36.07;99431.66;1829711;77;26891;-62
2023/07/24 10:03:50;;;;;;;;;;;;;;;29.11;36.30;99428.89;1816240;78;25561;-64
2023/07/24 10:06:18;;;;;;;68.97;65.17;;;;;;;28.95;37.15;99419.55;1829762;77;26637;-62
2023/07/24 10:08:47;;;;;;;68.37;64.37;;;;;;;29.05;37.46;99414.17;1830112;77;25521;-63
2023/07/24 10:11:15;;;;;;;68.55;64.50;;;;;;;29.24;37.67;99428.20;1829971;78;27533;-62
2023/07/24 10:13:44;;;;;;;71.13;67.33;;;;;;;29.18;37.13;99402.19;1830056;77;25393;-63
2023/07/24 10:16:11;;;;;;;8.63;3.33;;;;;;;29.33;37.71;99394.04;1826606;78;25340;-64
2023/07/24 10:18:46;;;;;;;6.08;3.35;;;;;;;29.47;37.95;99393.45;1823550;78;25598;-63
2023/07/24 10:21:14;;;;;;;6.28;3.00;;;;;;;29.67;37.74;99394.42;1823809;78;25576;-63
2023/07/24 10:23:46;;;;;;;5.40;3.40;;;;;;;29.88;37.10;99387.21;1823899;78;27459;-63
2023/07/24 10:26:15;;;;;;;5.55;4.92;;;;;;;29.86;36.75;99391.69;1823667;78;25715;-63
2023/07/24 10:28:42;;;;;;;5.72;5.20;;;;;;;29.73;36.23;99392.58;1823756;78;25492;-64
2023/07/24 10:31:28;;;;;;;4.90;4.50;;;;;;;29.60;36.04;99389.16;1823683;78;25566;-64
2023/07/24 10:33:58;;;;;;;18.90;17.25;;;;;;;29.55;36.45;99387.74;1803015;78;25600;-64
2023/07/24 10:36:24;;;;;;;10.30;9.53;;;;;;;29.53;36.70;99378.31;1823393;78;27543;-64
2023/07/24 10:38:56;;;;;;;8.45;7.85;;;;;;;29.66;36.80;99380.34;1823668;78;25520;-64
2023/07/24 10:41:25;;;;;;;45.15;42.70;;;;;;;29.80;37.42;99374.81;1823737;78;25567;-64
2023/07/24 10:43:56;;;;;;;42.70;40.17;;;;;;;30.06;37.41;99370.32;1822283;78;25482;-64
2023/07/24 10:46:23;;;;;;;69.10;65.37;;;;;;;30.35;36.50;99370.61;1822467;78;25549;-64
2023/07/24 10:48:52;;;;;;;68.52;64.65;;;;;;;30.50;36.06;99362.38;1823725;78;28011;-64
2023/07/24 10:51:20;;;;;;;68.07;64.40;;;;;;;30.58;36.45;99361.44;1823642;78;25412;-64
2023/07/24 10:53:49;;;;;;;68.67;64.72;;;;;;;30.70;35.98;99357.67;1823706;78;25459;-64
2023/07/24 10:56:17;;;;;;;68.85;64.90;;;;;;;30.78;35.63;99353.14;1823685;78;25724;-65
2023/07/24 10:58:44;;;;;;;68.60;64.90;;;;;;;30.83;35.36;99344.89;1823869;78;25439;-65
2023/07/24 11:01:13;;;;;;;68.45;64.95;;;;;;;30.76;35.43;99343.84;1823647;78;27544;-64
2023/07/24 11:03:43;;;;;;;67.10;63.40;;;;;;;30.90;35.25;99334.02;1823554;78;25456;-64
2023/07/24 11:06:22;;;;;;;67.70;64.15;;;;;;;31.12;34.71;99335.17;1823702;78;25513;-63
2023/07/24 11:08:56;;;;;;;;;;;;;;;31.01;34.29;99320.35;1826406;78;26296;-65
2023/07/24 11:11:33;;;;;;;68.45;64.75;;;;;;;30.85;34.02;99316.52;1823685;77;25550;-64
2023/07/24 11:14:02;;;;;;;68.60;65.00;;;;;;;30.66;34.48;99318.61;1823723;78;27465;-65
2023/07/24 11:16:34;;;;;;;70.00;66.33;;;;;;;30.65;34.82;99318.45;1826471;78;25403;-67
2023/07/24 11:18:57;;;;;;;69.00;65.30;;;;;;;30.62;34.68;99322.20;1828817;77;25570;-67
2023/07/24 11:21:24;;;;;;;69.00;65.22;;;;;;;30.56;34.06;99320.66;1829699;78;27609;-67